Time;durP1;ratioP1;P1;durP2;ratioP2;P2;SDS_P1;SDS_P2;PMS_P1;PMS_P2;Temp;Humidity;BMP_temperature;BMP_pressure;BME280_temperature;BME280_humidity;BME280_pressure;Samples;Min_cycle;Max_cycle;Signal;HPM_P1;HPM_P2
2023/04/09 00:01:57;;;;;;;;;;;13.20;90.70;;;;;;5036667;28;20011;-87
2023/04/09 00:04:23;;;;;;;;;;;13.10;90.60;;;;;;5036762;28;20065;-87
2023/04/09 00:06:51;;;;;;;;;;;13.10;90.60;;;;;;5053635;28;19908;-87
2023/04/09 00:14:56;;;;;;;;;;;13.10;90.70;;;;;;5054910;28;19924;-87
2023/04/09 00:17:24;;;;;;;;;;;13.10;90.70;;;;;;5037189;28;19908;-88
2023/04/09 00:19:53;;;;;;;;;;;13.10;90.70;;;;;;5036777;28;19909;-87
2023/04/09 00:22:19;;;;;;;;;;;13.10;90.70;;;;;;5037408;28;20154;-87
2023/04/09 00:25:09;;;;;;;;;;;13.10;90.70;;;;;;5040547;28;19908;-87
2023/04/09 00:27:43;;;;;;;;;;;13.10;90.70;;;;;;5054213;28;19909;-87
2023/04/09 00:30:51;;;;;;;;;;;13.00;90.70;;;;;;5011989;28;20024;-87
2023/04/09 00:33:01;;;;;;;;;;;13.00;90.70;;;;;;5006637;28;20280;-87
2023/04/09 00:36:00;;;;;;;;;;;13.00;90.70;;;;;;4995814;28;19916;-87
2023/04/09 00:38:35;;;;;;;;;;;13.00;90.80;;;;;;5013692;28;20245;-87
2023/04/09 00:41:01;;;;;;;;;;;13.00;90.70;;;;;;4997062;28;20153;-87
2023/04/09 00:44:01;;;;;;;;;;;13.00;90.70;;;;;;5012065;28;19925;-87
2023/04/09 00:46:36;;;;;;;;;;;13.00;90.70;;;;;;4972339;28;20300;-87
2023/04/09 00:49:13;;;;;;;;;;;13.00;90.80;;;;;;4970956;28;19956;-87
2023/04/09 00:51:39;;;;;;;;;;;13.00;90.80;;;;;;4971806;28;20244;-87
2023/04/09 00:54:26;;;;;;;;;;;13.00;90.80;;;;;;4971291;28;20339;-87
2023/04/09 00:57:01;;;;;;;;;;;13.00;90.80;;;;;;4983852;28;19910;-87
2023/04/09 00:59:30;;;;;;;;;;;12.90;90.80;;;;;;4990121;28;20005;-87
2023/04/09 01:01:58;;;;;;;;;;;12.90;90.80;;;;;;5006072;28;20320;-87
2023/04/09 01:04:33;;;;;;;;;;;12.90;90.80;;;;;;5008188;28;19917;-87
2023/04/09 01:07:24;;;;;;;;;;;12.90;90.80;;;;;;5010105;28;19992;-87
2023/04/09 01:13:07;;;;;;;;;;;12.90;90.90;;;;;;4952949;28;19910;-87
2023/04/09 01:15:53;;;;;;;;;;;12.90;90.90;;;;;;4895429;29;19911;-87
2023/04/09 01:18:52;;;;;;;;;;;12.90;90.90;;;;;;4894976;29;20610;-87
2023/04/09 01:21:36;;;;;;;;;;;12.90;90.90;;;;;;4952362;29;19918;-87
2023/04/09 01:24:29;;;;;;;;;;;12.80;90.90;;;;;;4951577;28;19926;-87
2023/04/09 01:26:56;;;;;;;;;;;12.80;90.90;;;;;;4952281;28;19930;-87
2023/04/09 01:29:28;;;;;;;;;;;12.90;90.90;;;;;;4956884;28;20253;-88
2023/04/09 01:32:12;;;;;;;;;;;12.80;90.90;;;;;;5034777;28;19909;-87
2023/04/09 01:35:00;;;;;;;;;;;12.80;90.90;;;;;;5049512;28;19908;-87
2023/04/09 01:37:31;;;;;;;;;;;12.80;90.90;;;;;;5049867;28;19909;-87
2023/04/09 01:40:16;;;;;;;;;;;12.80;91.00;;;;;;5033473;28;19908;-87
2023/04/09 01:42:44;;;;;;;;;;;12.80;90.90;;;;;;5034366;28;19913;-87
2023/04/09 01:48:13;;;;;;;;;;;12.80;90.90;;;;;;5053429;28;19920;-87
2023/04/09 01:50:39;;;;;;;;;;;12.70;90.90;;;;;;5053157;28;19913;-87
2023/04/09 01:53:20;;;;;;;;;;;12.80;90.90;;;;;;5054105;28;20106;-87
2023/04/09 01:55:49;;;;;;;;;;;12.70;90.90;;;;;;5040591;28;19920;-87
2023/04/09 01:58:52;;;;;;;;;;;12.70;90.90;;;;;;5035010;28;20015;-87
2023/04/09 02:01:31;;;;;;;;;;;12.70;90.90;;;;;;5058114;28;20209;-87
2023/04/09 02:07:15;;;;;;;;;;;12.70;91.00;;;;;;5056929;28;19924;-87
2023/04/09 02:09:48;;;;;;;;;;;12.70;91.00;;;;;;5058616;28;19978;-87
2023/04/09 02:12:52;;;;;;;;;;;12.70;91.00;;;;;;5039745;28;19925;-87
2023/04/09 02:15:19;;;;;;;;;;;12.70;91.00;;;;;;4997048;28;19913;-87
2023/04/09 02:17:50;;;;;;;;;;;12.60;91.00;;;;;;4979767;28;19913;-88
2023/04/09 02:20:16;;;;;;;;;;;12.70;91.00;;;;;;4997403;28;19920;-87
2023/04/09 02:22:42;;;;;;;;;;;12.60;91.00;;;;;;4997266;28;19910;-87
2023/04/09 02:25:07;;;;;;;;;;;12.60;91.00;;;;;;4980043;28;19924;-87
2023/04/09 02:27:48;;;;;;;;;;;12.60;91.00;;;;;;4995895;28;19918;-87
2023/04/09 02:30:14;;;;;;;;;;;12.60;91.00;;;;;;4980649;28;19914;-88
2023/04/09 02:32:39;;;;;;;;;;;12.60;91.00;;;;;;4979063;28;19999;-88
2023/04/09 02:35:23;;;;;;;;;;;12.60;91.00;;;;;;4977694;28;19952;-88
2023/04/09 02:40:41;;;;;;;;;;;12.60;91.00;;;;;;4973952;28;19918;-87
2023/04/09 02:43:07;;;;;;;;;;;12.60;91.00;;;;;;4959388;28;20277;-88
2023/04/09 02:45:41;;;;;;;;;;;12.60;91.00;;;;;;5002603;28;19919;-88
2023/04/09 02:51:13;;;;;;;;;;;12.60;91.00;;;;;;5056971;28;19967;-88
2023/04/09 02:56:45;;;;;;;;;;;12.60;91.00;;;;;;5056718;28;19919;-88
2023/04/09 02:59:17;;;;;;;;;;;12.60;91.00;;;;;;5039715;28;19947;-88
2023/04/09 03:01:54;;;;;;;;;;;12.60;91.00;;;;;;5015092;28;19920;-88
2023/04/09 03:04:20;;;;;;;;;;;12.60;91.00;;;;;;5000594;28;20041;-88
2023/04/09 03:09:52;;;;;;;;;;;12.50;91.00;;;;;;4996030;28;19959;-88
2023/04/09 03:12:17;;;;;;;;;;;12.50;91.00;;;;;;4995836;28;19941;-87
2023/04/09 03:15:20;;;;;;;;;;;12.50;91.00;;;;;;4996622;28;19914;-87
2023/04/09 03:20:57;;;;;;;;;;;12.50;91.00;;;;;;5013876;28;20056;-87
2023/04/09 03:23:25;;;;;;;;;;;12.40;91.00;;;;;;5015204;28;19970;-88
2023/04/09 03:26:12;;;;;;;;;;;12.50;91.00;;;;;;5013405;28;19913;-87
2023/04/09 03:29:35;;;;;;;;;;;12.50;91.00;;;;;;5013260;28;19925;-88
2023/04/09 03:31:38;;;;;;;;;;;12.40;91.00;;;;;;5006039;28;19909;-87
2023/04/09 03:34:07;;;;;;;;;;;12.40;91.00;;;;;;5023351;28;19913;-87
2023/04/09 03:36:32;;;;;;;;;;;12.40;91.00;;;;;;5015504;28;19917;-88
2023/04/09 03:39:19;;;;;;;;;;;12.40;91.00;;;;;;5012158;28;20186;-88
2023/04/09 03:45:09;;;;;;;;;;;12.40;91.00;;;;;;4981635;28;19910;-88
2023/04/09 03:47:52;;;;;;;;;;;12.40;91.00;;;;;;4994795;28;19917;-87
2023/04/09 03:50:23;;;;;;;;;;;12.40;91.00;;;;;;4974244;28;20362;-88
2023/04/09 03:53:07;;;;;;;;;;;12.40;91.00;;;;;;4973036;28;19969;-87
2023/04/09 03:55:36;;;;;;;;;;;12.40;91.20;;;;;;4974670;28;19910;-88
2023/04/09 03:58:36;;;;;;;;;;;12.40;90.90;;;;;;4974275;28;19914;-88
2023/04/09 04:01:05;;;;;;;;;;;12.40;90.90;;;;;;4936244;29;20009;-88
2023/04/09 04:03:36;;;;;;;;;;;12.40;90.90;;;;;;4937246;29;20317;-88
2023/04/09 04:06:05;;;;;;;;;;;12.40;90.90;;;;;;4936913;29;19961;-87
2023/04/09 04:09:07;;;;;;;;;;;12.40;90.90;;;;;;4937862;29;19946;-88
2023/04/09 04:11:32;;;;;;;;;;;12.30;90.90;;;;;;4979881;28;19919;-88
2023/04/09 04:13:58;;;;;;;;;;;12.30;91.20;;;;;;5007002;28;20123;-88
2023/04/09 04:16:26;;;;;;;;;;;12.30;90.90;;;;;;4999191;28;19959;-87
2023/04/09 04:18:52;;;;;;;;;;;12.30;90.90;;;;;;4999149;28;20012;-87
2023/04/09 04:21:20;;;;;;;;;;;12.30;90.90;;;;;;5009726;28;20003;-88
2023/04/09 04:23:46;;;;;;;;;;;12.30;90.90;;;;;;5039028;28;19920;-87
2023/04/09 04:26:24;;;;;;;;;;;12.30;90.90;;;;;;5039555;28;20275;-88
2023/04/09 04:29:01;;;;;;;;;;;12.30;90.80;;;;;;5039496;28;19913;-87
2023/04/09 04:31:30;;;;;;;;;;;12.30;90.90;;;;;;5038656;28;19912;-88
2023/04/09 04:37:01;;;;;;;;;;;12.30;91.10;;;;;;5056774;28;19916;-87
2023/04/09 04:39:30;;;;;;;;;;;12.30;90.80;;;;;;5055994;28;19908;-87
2023/04/09 04:42:18;;;;;;;;;;;12.20;90.80;;;;;;5038814;28;19995;-88
2023/04/09 04:44:47;;;;;;;;;;;12.30;90.90;;;;;;5038408;28;19908;-88
2023/04/09 04:47:18;;;;;;;;;;;12.30;90.80;;;;;;5038835;28;20163;-88
2023/04/09 04:49:50;;;;;;;;;;;12.20;90.80;;;;;;5039029;28;19975;-88
2023/04/09 04:52:22;;;;;;;;;;;12.20;90.80;;;;;;5032590;28;19916;-88
2023/04/09 04:55:35;;;;;;;;;;;12.20;90.80;;;;;;5038453;28;19913;-88
2023/04/09 04:58:22;;;;;;;;;;;12.20;90.80;;;;;;5026317;28;19923;-87
2023/04/09 05:01:00;;;;;;;;;;;12.20;90.80;;;;;;5037985;28;19916;-88
2023/04/09 05:03:28;;;;;;;;;;;12.20;91.10;;;;;;5037391;28;19915;-87
2023/04/09 05:05:57;;;;;;;;;;;12.20;90.80;;;;;;5037616;28;20294;-88
2023/04/09 05:08:35;;;;;;;;;;;12.30;90.70;;;;;;5035751;28;20191;-87
2023/04/09 05:13:53;;;;;;;;;;;12.30;90.60;;;;;;5052739;28;19991;-88
2023/04/09 05:16:28;;;;;;;;;;;12.30;90.50;;;;;;5036310;28;19917;-88
2023/04/09 05:19:00;;;;;;;;;;;12.30;90.40;;;;;;5035771;28;20294;-88
2023/04/09 05:21:26;;;;;;;;;;;12.30;90.30;;;;;;5036028;28;20252;-88
2023/04/09 05:24:11;;;;;;;;;;;12.30;90.20;;;;;;5034743;28;19986;-88
2023/04/09 05:26:39;;;;;;;;;;;12.40;90.20;;;;;;5052646;28;20148;-87
2023/04/09 05:29:10;;;;;;;;;;;12.40;90.10;;;;;;5010423;28;20391;-88
2023/04/09 05:31:42;;;;;;;;;;;12.40;90.00;;;;;;4998022;28;19921;-87
2023/04/09 05:37:19;;;;;;;;;;;12.40;89.70;;;;;;5014614;28;20120;-87
2023/04/09 05:39:50;;;;;;;;;;;12.50;89.50;;;;;;4999015;28;20049;-88
2023/04/09 05:42:28;;;;;;;;;;;12.50;89.30;;;;;;5014984;28;20069;-88
2023/04/09 05:44:56;;;;;;;;;;;12.50;89.20;;;;;;4998028;28;19910;-88
2023/04/09 05:47:24;;;;;;;;;;;12.50;89.00;;;;;;4998266;28;19921;-88
2023/04/09 05:50:43;;;;;;;;;;;12.50;88.90;;;;;;5015060;28;19929;-87
2023/04/09 05:53:08;;;;;;;;;;;12.50;88.70;;;;;;4998795;28;19909;-88
2023/04/09 05:55:54;;;;;;;;;;;12.60;88.30;;;;;;5014124;28;19909;-89
2023/04/09 05:58:30;;;;;;;;;;;12.60;88.00;;;;;;4996705;28;20303;-88
2023/04/09 06:01:04;;;;;;;;;;;12.70;87.60;;;;;;5048776;28;19912;-88
2023/04/09 06:03:33;;;;;;;;;;;12.80;87.10;;;;;;5037999;28;19948;-87
2023/04/09 06:05:59;;;;;;;;;;;12.90;86.70;;;;;;5038469;28;19913;-88
2023/04/09 06:08:43;;;;;;;;;;;13.00;86.00;;;;;;5037936;28;20029;-88
2023/04/09 06:11:12;;;;;;;;;;;13.10;85.20;;;;;;5056950;28;19924;-88
2023/04/09 06:13:47;;;;;;;;;;;13.20;84.40;;;;;;5038853;28;20211;-88
2023/04/09 06:16:12;;;;;;;;;;;13.40;83.20;;;;;;5056799;28;19908;-88
2023/04/09 06:18:57;;;;;;;;;;;13.70;81.90;;;;;;5039511;28;19920;-88
2023/04/09 06:21:35;;;;;;;;;;;14.00;80.20;;;;;;5055950;28;20271;-87
2023/04/09 06:24:12;;;;;;;;;;;14.20;77.90;;;;;;5038955;28;20421;-88
2023/04/09 06:26:44;;;;;;;;;;;14.50;76.70;;;;;;5039590;28;19916;-88
2023/04/09 06:29:28;;;;;;;;;;;14.70;74.70;;;;;;5039330;28;19921;-87
2023/04/09 06:32:21;;;;;;;;;;;14.90;72.90;;;;;;5036706;28;19923;-88
2023/04/09 06:34:56;;;;;;;;;;;15.30;70.70;;;;;;5054807;28;19917;-88
2023/04/09 06:37:44;;;;;;;;;;;15.80;68.20;;;;;;5036681;28;19916;-88
2023/04/09 06:40:25;;;;;;;;;;;16.20;65.80;;;;;;5053356;28;19916;-88
2023/04/09 06:42:50;;;;;;;;;;;16.60;63.40;;;;;;5032484;28;19935;-88
2023/04/09 06:45:22;;;;;;;;;;;16.90;61.30;;;;;;5039804;28;19908;-88
2023/04/09 06:48:08;;;;;;;;;;;17.20;59.80;;;;;;5039167;28;19908;-88
2023/04/09 06:50:40;;;;;;;;;;;17.50;59.00;;;;;;5038988;28;19916;-88
2023/04/09 06:53:18;;;;;;;;;;;17.80;58.10;;;;;;5038667;28;20393;-88
2023/04/09 06:55:44;;;;;;;;;;;18.10;57.30;;;;;;5038405;28;19909;-88
2023/04/09 06:58:13;;;;;;;;;;;18.30;56.60;;;;;;5038493;28;20133;-88
2023/04/09 07:00:53;;;;;;;;;;;18.60;55.90;;;;;;5054065;28;19912;-88
2023/04/09 07:03:19;;;;;;;;;;;18.90;55.30;;;;;;5037799;28;19959;-88
2023/04/09 07:05:47;;;;;;;;;;;19.20;54.60;;;;;;5036598;28;19940;-88
2023/04/09 07:08:19;;;;;;;;;;;19.40;54.10;;;;;;5053937;28;19917;-88
2023/04/09 07:11:29;;;;;;;;;;;19.60;53.50;;;;;;5032311;28;19944;-89
2023/04/09 07:14:06;;;;;;;;;;;19.90;52.90;;;;;;5036664;28;19909;-88
2023/04/09 07:19:41;;;;;;;;;;;20.50;51.90;;;;;;5052124;28;20321;-88
2023/04/09 07:22:16;;;;;;;;;;;20.70;51.30;;;;;;5034167;28;19967;-88
2023/04/09 07:25:20;;;;;;;;;;;20.90;50.90;;;;;;5034705;28;19909;-88
2023/04/09 07:27:51;;;;;;;;;;;21.10;50.60;;;;;;4989184;28;20280;-88
2023/04/09 07:30:32;;;;;;;;;;;21.30;50.10;;;;;;5000974;28;19928;-88
2023/04/09 07:32:58;;;;;;;;;;;21.50;49.80;;;;;;5034351;28;19920;-88
2023/04/09 07:35:30;;;;;;;;;;;21.70;49.50;;;;;;5033104;28;19909;-88
2023/04/09 07:37:57;;;;;;;;;;;21.90;49.20;;;;;;5035529;28;19916;-88
2023/04/09 07:40:23;;;;;;;;;;;22.10;48.80;;;;;;5011825;28;20329;-88
2023/04/09 07:45:51;;;;;;;;;;;22.50;48.10;;;;;;5011798;28;20024;-88
2023/04/09 07:48:27;;;;;;;;;;;22.70;47.80;;;;;;4995445;28;20162;-88
2023/04/09 07:50:55;;;;;;;;;;;22.90;47.70;;;;;;4994554;28;19968;-88
2023/04/09 07:53:21;;;;;;;;;;;23.00;47.50;;;;;;5010942;28;19918;-87
2023/04/09 07:55:46;;;;;;;;;;;23.20;47.30;;;;;;5011656;28;20006;-88
2023/04/09 07:58:12;;;;;;;;;;;23.40;47.20;;;;;;5010804;28;19949;-88
2023/04/09 08:00:40;;;;;;;;;;;23.50;46.90;;;;;;4994116;28;20016;-88
2023/04/09 08:03:06;;;;;;;;;;;23.70;46.60;;;;;;4995625;28;19952;-88
2023/04/09 08:05:50;;;;;;;;;;;23.90;46.40;;;;;;4995594;28;20235;-88
2023/04/09 08:08:52;;;;;;;;;;;24.10;46.30;;;;;;5018349;28;19913;-88
2023/04/09 08:11:24;;;;;;;;;;;24.20;45.90;;;;;;5042001;28;19999;-88
2023/04/09 08:16:36;;;;;;;;;;;24.70;45.40;;;;;;5052804;28;19915;-88
2023/04/09 08:19:27;;;;;;;;;;;24.90;45.10;;;;;;5050635;28;19909;-88
2023/04/09 08:22:11;;;;;;;;;;;25.10;44.90;;;;;;5046324;28;19966;-88
2023/04/09 08:24:39;;;;;;;;;;;25.10;44.70;;;;;;5034096;28;19940;-88
2023/04/09 08:27:29;;;;;;;;;;;25.20;44.70;;;;;;5051233;28;19983;-88
2023/04/09 08:29:54;;;;;;;;;;;25.30;44.60;;;;;;5050203;28;19913;-88
2023/04/09 08:32:20;;;;;;;;;;;25.40;44.50;;;;;;5048882;28;20190;-88
2023/04/09 08:35:08;;;;;;;;;;;25.40;44.30;;;;;;5048533;28;19919;-88
2023/04/09 08:37:33;;;;;;;;;;;25.50;44.20;;;;;;5062246;28;20197;-88
2023/04/09 08:40:08;;;;;;;;;;;25.60;44.30;;;;;;5054296;28;19920;-88
2023/04/09 08:45:56;;;;;;;;;;;25.80;44.30;;;;;;5043575;28;19993;-88
2023/04/09 08:48:23;;;;;;;;;;;26.00;44.00;;;;;;5074107;28;19908;-89
2023/04/09 08:51:07;;;;;;;;;;;26.10;44.00;;;;;;5073511;28;19912;-88
2023/04/09 08:53:52;;;;;;;;;;;26.20;43.80;;;;;;5054702;28;19938;-88
2023/04/09 08:56:22;;;;;;;;;;;26.40;43.60;;;;;;5054452;28;19908;-89
2023/04/09 08:58:48;;;;;;;;;;;26.50;43.60;;;;;;5048548;28;19934;-89
2023/04/09 09:01:35;;;;;;;;;;;26.60;43.30;;;;;;5068072;28;19908;-89
2023/04/09 09:04:05;;;;;;;;;;;25.30;43.40;;;;;;5049897;28;20247;-89
2023/04/09 09:06:35;;;;;;;;;;;24.50;44.10;;;;;;5071651;28;20290;-89
2023/04/09 09:09:07;;;;;;;;;;;24.00;45.40;;;;;;5055648;28;19909;-89
2023/04/09 09:14:18;;;;;;;;;;;25.50;44.70;;;;;;5069446;28;20210;-89
2023/04/09 09:17:06;;;;;;;;;;;26.10;44.20;;;;;;5052681;28;19909;-89
2023/04/09 09:19:32;;;;;;;;;;;26.40;43.80;;;;;;5050512;28;20233;-89
2023/04/09 09:22:05;;;;;;;;;;;26.70;43.60;;;;;;5050169;28;20322;-89
2023/04/09 09:24:43;;;;;;;;;;;26.90;43.30;;;;;;5050984;28;19931;-89
2023/04/09 09:27:27;;;;;;;;;;;27.00;43.10;;;;;;5068554;28;19916;-89
2023/04/09 09:29:52;;;;;;;;;;;25.40;43.20;;;;;;5070695;28;19949;-89
2023/04/09 09:32:27;;;;;;;;;;;24.10;44.70;;;;;;5053286;28;19908;-89
2023/04/09 09:35:12;;;;;;;;;;;24.10;45.00;;;;;;5070423;28;19916;-89
2023/04/09 09:37:37;;;;;;;;;;;24.80;45.00;;;;;;5064720;28;19923;-89
2023/04/09 09:40:12;;;;;;;;;;;24.20;44.90;;;;;;5041360;28;19916;-89
2023/04/09 09:42:59;;;;;;;;;;;25.20;44.60;;;;;;5036459;28;19917;-89
2023/04/09 09:45:31;;;;;;;;;;;24.00;44.50;;;;;;5059766;28;20584;-89
2023/04/09 09:47:57;;;;;;;;;;;23.50;45.00;;;;;;5059956;28;19940;-89
2023/04/09 09:50:24;;;;;;;;;;;23.00;45.50;;;;;;5069834;28;20431;-88
2023/04/09 09:52:51;;;;;;;;;;;23.20;45.50;;;;;;5057489;28;19916;-88
2023/04/09 09:55:23;;;;;;;;;;;22.40;45.90;;;;;;5068627;28;19955;-88
2023/04/09 09:57:59;;;;;;;;;;;23.00;46.50;;;;;;5057149;28;19913;-89
2023/04/09 10:00:26;;;;;;;;;;;24.20;45.40;;;;;;5064309;28;20225;-88
2023/04/09 10:03:12;;;;;;;;;;;23.50;45.10;;;;;;5053843;28;19977;-88
2023/04/09 10:05:39;;;;;;;;;;;24.20;45.00;;;;;;5051980;28;19960;-89
2023/04/09 10:11:04;;;;;;;;;;;22.70;45.80;;;;;;5067372;28;19924;-88
2023/04/09 10:13:51;;;;;;;;;;;22.00;46.30;;;;;;5074286;28;19971;-88
2023/04/09 10:16:18;;;;;;;;;;;21.70;46.50;;;;;;5077096;28;19919;-88
2023/04/09 10:18:50;;;;;;;;;;;21.40;46.90;;;;;;5078824;28;19912;-89
2023/04/09 10:21:27;;;;;;;;;;;21.10;47.30;;;;;;5060602;28;19955;-89
2023/04/09 10:24:06;;;;;;;;;;;20.70;47.80;;;;;;5060714;28;19912;-89
2023/04/09 10:26:36;;;;;;;;;;;20.30;48.20;;;;;;5078640;28;19912;-88
2023/04/09 10:29:08;;;;;;;;;;;20.20;48.70;;;;;;5057450;28;20003;-88
2023/04/09 10:31:44;;;;;;;;;;;20.00;48.80;;;;;;5044578;28;20301;-88
2023/04/09 10:34:23;;;;;;;;;;;19.80;49.10;;;;;;5053111;28;20351;-88
2023/04/09 10:37:14;;;;;;;;;;;19.70;49.30;;;;;;5068690;28;19989;-88
2023/04/09 10:39:47;;;;;;;;;;;19.60;49.60;;;;;;5054155;28;19917;-88
2023/04/09 10:42:26;;;;;;;;;;;19.40;49.80;;;;;;5053231;28;19912;-88
2023/04/09 10:45:19;;;;;;;;;;;19.30;50.00;;;;;;5054186;28;19909;-88
2023/04/09 10:50:44;;;;;;;;;;;19.10;50.60;;;;;;5072068;28;19919;-89
2023/04/09 10:53:28;;;;;;;;;;;18.90;50.80;;;;;;5053147;28;19940;-88
2023/04/09 10:55:55;;;;;;;;;;;18.90;51.10;;;;;;5054528;28;19908;-88
2023/04/09 10:58:23;;;;;;;;;;;18.90;51.20;;;;;;5071605;28;19909;-88
2023/04/09 11:01:07;;;;;;;;;;;18.80;51.40;;;;;;5053995;28;20110;-88
2023/04/09 11:03:43;;;;;;;;;;;18.70;51.60;;;;;;5054033;28;20119;-89
2023/04/09 11:06:09;;;;;;;;;;;18.60;51.80;;;;;;5055910;28;19908;-88
2023/04/09 11:08:36;;;;;;;;;;;18.60;52.10;;;;;;5054056;28;20148;-88
2023/04/09 11:11:02;;;;;;;;;;;18.50;52.20;;;;;;5073362;28;20218;-88
2023/04/09 11:13:31;;;;;;;;;;;18.50;52.40;;;;;;5055522;28;20014;-88
2023/04/09 11:16:02;;;;;;;;;;;18.40;52.50;;;;;;5052753;28;19916;-88
2023/04/09 11:23:34;;;;;;;;;;;18.40;53.00;;;;;;5076091;28;19943;-11
2023/04/09 11:26:04;;;;;;;;;;;18.30;53.10;;;;;;5078649;28;19912;-10
2023/04/09 11:28:33;;;;;;;;;;;18.30;53.20;;;;;;5078307;28;20244;-10
2023/04/09 11:31:09;;;;;;;;;;;18.20;53.30;;;;;;5078663;28;20023;-11
2023/04/09 11:33:38;;;;;;;;;;;18.20;53.50;;;;;;5062004;28;19943;-10
2023/04/09 11:36:05;;;;;;;;;;;18.20;53.60;;;;;;5079053;28;19915;-11
2023/04/09 11:38:30;;;;;;;;;;;18.10;53.60;;;;;;5078857;28;20241;-11
2023/04/09 11:41:00;;;;;;;;;;;18.10;53.80;;;;;;5078959;28;19912;-10
2023/04/09 11:43:26;;;;;;;;;;;18.00;53.90;;;;;;5079058;28;19923;-11
2023/04/09 11:45:54;;;;;;;;;;;18.00;54.20;;;;;;5078693;28;20215;-11
2023/04/09 11:48:22;;;;;;;;;;;18.00;54.30;;;;;;5078850;28;19943;-10
2023/04/09 11:50:51;;;;;;;;;;;17.90;54.40;;;;;;5061746;28;19912;-11
2023/04/09 11:53:17;;;;;;;;;;;17.90;54.60;;;;;;5078749;28;20193;-11
2023/04/09 11:55:48;;;;;;;;;;;17.90;54.80;;;;;;5078574;28;19913;-11
2023/04/09 11:58:14;;;;;;;;;;;17.90;54.90;;;;;;5078523;28;19955;-11
2023/04/09 12:00:44;;;;;;;;;;;17.90;55.00;;;;;;5079302;28;19909;-11
2023/04/09 12:03:10;;;;;;;;;;;17.80;55.00;;;;;;5061537;28;19920;-11
2023/04/09 12:05:35;;;;;;;;;;;17.80;55.20;;;;;;5078803;28;19961;-10
2023/04/09 12:08:03;;;;;;;;;;;17.80;55.10;;;;;;5078502;28;19916;-11
2023/04/09 12:10:34;;;;;;;;;;;17.80;55.20;;;;;;5060153;28;19970;-11
2023/04/09 12:13:01;;;;;;;;;;;17.80;55.40;;;;;;5078455;28;19909;-11
2023/04/09 12:15:30;;;;;;;;;;;17.80;55.60;;;;;;5077597;28;19947;-11
2023/04/09 12:17:59;;;;;;;;;;;17.70;55.70;;;;;;5077794;28;20327;-11
2023/04/09 12:20:30;;;;;;;;;;;17.70;55.80;;;;;;5059636;28;19994;-11
2023/04/09 12:23:02;;;;;;;;;;;17.70;55.80;;;;;;5060100;28;19920;-11
2023/04/09 12:25:31;;;;;;;;;;;17.80;55.90;;;;;;5078223;28;19919;-11
2023/04/09 12:27:57;;;;;;;;;;;17.80;55.90;;;;;;5060476;28;19912;-11
2023/04/09 12:30:24;;;;;;;;;;;17.80;56.20;;;;;;5077757;28;19920;-11
2023/04/09 12:32:50;;;;;;;;;;;17.80;55.80;;;;;;5077844;28;20045;-11
2023/04/09 12:35:22;;;;;;;;;;;17.80;55.80;;;;;;5059212;28;19912;-11
2023/04/09 12:37:48;;;;;;;;;;;17.80;55.80;;;;;;5077039;28;19908;-11
2023/04/09 12:40:19;;;;;;;;;;;17.70;55.80;;;;;;5058905;28;20437;-11
2023/04/09 12:42:45;;;;;;;;;;;17.70;56.00;;;;;;5077161;28;20255;-11
2023/04/09 12:47:36;;;;;;;;;;;17.60;56.30;;;;;;5077137;22;19973;-11
2023/04/09 12:50:05;;;;;;;;;;;17.60;56.40;;;;;;5052016;28;19923;-11
2023/04/09 12:52:31;;;;;;;;;;;17.60;56.60;;;;;;5069543;28;20033;-11
2023/04/09 12:54:57;;;;;;;;;;;17.60;56.70;;;;;;5072082;28;20236;-11
2023/04/09 12:57:23;;;;;;;;;;;17.60;56.80;;;;;;5077524;28;20444;-11
2023/04/09 12:59:49;;;;;;;;;;;17.60;56.80;;;;;;5059861;28;20001;-11
2023/04/09 13:02:15;;;;;;;;;;;17.60;57.00;;;;;;5076632;28;19909;-11
2023/04/09 13:04:41;;;;;;;;;;;17.60;57.00;;;;;;5075874;28;19908;-11
2023/04/09 13:07:07;;;;;;;;;;;17.60;57.00;;;;;;5076914;28;19912;-11
2023/04/09 13:09:40;;;;;;;;;;;17.50;56.70;;;;;;5076538;28;19977;-11
2023/04/09 13:12:06;;;;;;;;;;;17.50;56.80;;;;;;5059142;28;19912;-11
2023/04/09 13:14:31;;;;;;;;;;;17.50;56.90;;;;;;5075900;28;20205;-10
2023/04/09 13:16:57;;;;;;;;;;;17.50;57.00;;;;;;5076212;28;20281;-10
2023/04/09 13:19:22;;;;;;;;;;;17.40;57.10;;;;;;5075906;28;19970;-10
2023/04/09 13:21:48;;;;;;;;;;;17.40;57.30;;;;;;5077384;28;19909;-10
2023/04/09 13:24:13;;;;;;;;;;;17.40;57.50;;;;;;5077025;28;19919;-10
2023/04/09 13:26:40;;;;;;;;;;;17.40;57.50;;;;;;5077305;28;19916;-10
2023/04/09 13:29:07;;;;;;;;;;;17.40;57.50;;;;;;5059597;28;19909;-10
2023/04/09 13:31:35;;;;;;;;;;;17.50;57.60;;;;;;5076661;28;19919;-10
2023/04/09 13:34:01;;;;;;;;;;;17.40;57.40;;;;;;5076966;28;20003;-10
2023/04/09 13:36:30;;;;;;;;;;;17.40;57.50;;;;;;5076557;28;20004;-10
2023/04/09 13:39:02;;;;;;;;;;;17.40;57.60;;;;;;5076582;28;19919;-10
2023/04/09 13:41:29;;;;;;;;;;;17.40;57.60;;;;;;5077590;28;19909;-11
2023/04/09 13:44:04;;;;;;;;;;;17.40;57.60;;;;;;5058828;28;20288;-10
2023/04/09 13:46:30;;;;;;;;;;;17.40;57.70;;;;;;5076927;28;19917;-11
2023/04/09 13:48:56;;;;;;;;;;;17.40;57.80;;;;;;5058807;28;19918;-11
2023/04/09 13:51:21;;;;;;;;;;;17.40;57.90;;;;;;5062002;28;19912;-10
2023/04/09 13:53:48;;;;;;;;;;;17.40;58.10;;;;;;5079055;28;20405;-10
2023/04/09 13:56:14;;;;;;;;;;;17.30;58.20;;;;;;5062718;28;19965;-10
2023/04/09 13:58:40;;;;;;;;;;;17.30;58.40;;;;;;5080406;28;19908;-10
2023/04/09 14:01:06;;;;;;;;;;;17.30;58.50;;;;;;5078315;22;19925;-9
2023/04/09 14:03:31;;;;;;;;;;;17.30;58.60;;;;;;5034691;28;19927;-10
2023/04/09 14:05:57;;;;;;;;;;;17.30;58.70;;;;;;5053735;28;20398;-10
2023/04/09 14:08:22;;;;;;;;;;;17.30;58.80;;;;;;5059642;28;20008;-10
2023/04/09 14:10:48;;;;;;;;;;;17.30;58.80;;;;;;5035113;28;19912;-10
2023/04/09 14:13:14;;;;;;;;;;;17.30;59.00;;;;;;5057167;28;20199;-10
2023/04/09 14:15:40;;;;;;;;;;;17.30;59.10;;;;;;5057658;28;19915;-10
2023/04/09 14:18:06;;;;;;;;;;;17.30;59.20;;;;;;5060000;28;19908;-10
2023/04/09 14:20:32;;;;;;;;;;;17.30;59.30;;;;;;5042063;28;19920;-11
2023/04/09 14:23:04;;;;;;;;;;;17.30;59.40;;;;;;5059273;28;19916;-10
2023/04/09 14:25:29;;;;;;;;;;;17.30;59.40;;;;;;5060138;28;19908;-10
2023/04/09 14:27:56;;;;;;;;;;;17.30;59.40;;;;;;5042370;28;19993;-10
2023/04/09 14:30:22;;;;;;;;;;;17.30;59.50;;;;;;5042131;28;20350;-11
2023/04/09 14:33:02;;;;;;;;;;;17.30;59.50;;;;;;5042645;28;19982;-11
2023/04/09 14:35:28;;;;;;;;;;;17.30;59.70;;;;;;5059518;28;20175;-10
2023/04/09 14:37:53;;;;;;;;;;;17.30;59.70;;;;;;5058213;28;20388;-10
2023/04/09 14:40:19;;;;;;;;;;;17.30;59.70;;;;;;5058320;28;20205;-10
2023/04/09 14:42:51;;;;;;;;;;;17.30;59.80;;;;;;5059900;28;19909;-10
2023/04/09 14:45:17;;;;;;;;;;;17.30;59.80;;;;;;5059684;28;19978;-10
2023/04/09 14:47:42;;;;;;;;;;;17.30;59.90;;;;;;5059178;28;19909;-10
2023/04/09 14:50:10;;;;;;;;;;;17.30;60.10;;;;;;5060231;28;20282;-11
2023/04/09 14:52:35;;;;;;;;;;;17.30;60.10;;;;;;5059696;28;19979;-10
2023/04/09 14:55:11;;;;;;;;;;;17.30;60.30;;;;;;5059435;28;20200;-10
2023/04/09 14:57:37;;;;;;;;;;;17.20;60.30;;;;;;5042488;28;19935;-11
2023/04/09 15:00:04;;;;;;;;;;;17.30;60.60;;;;;;5059737;28;20259;-11
2023/04/09 15:02:30;;;;;;;;;;;17.20;60.70;;;;;;5057501;28;19917;-11
2023/04/09 15:04:55;;;;;;;;;;;17.20;60.80;;;;;;5042078;28;19908;-11
2023/04/09 15:07:21;;;;;;;;;;;17.20;60.90;;;;;;5058879;28;19919;-11
2023/04/09 15:09:46;;;;;;;;;;;17.20;61.10;;;;;;5041535;28;19939;-11
2023/04/09 15:12:12;;;;;;;;;;;17.20;61.40;;;;;;5058994;28;19944;-11
2023/04/09 15:14:37;;;;;;;;;;;17.20;61.70;;;;;;5041817;28;20170;-11
2023/04/09 15:17:03;;;;;;;;;;;17.20;62.40;;;;;;5038629;23;20019;-11
2023/04/09 15:19:30;;;;;;;;;;;17.20;62.00;;;;;;5037200;28;20004;-11
2023/04/09 15:21:56;;;;;;;;;;;17.10;62.40;;;;;;5037752;28;19917;-11
2023/04/09 15:24:21;;;;;;;;;;;17.10;62.80;;;;;;5036519;28;20264;-11
2023/04/09 15:26:48;;;;;;;;;;;17.10;62.80;;;;;;5038414;28;19909;-11
2023/04/09 15:29:23;;;;;;;;;;;17.20;62.90;;;;;;5038918;28;20209;-11
2023/04/09 15:31:51;;;;;;;;;;;17.20;63.50;;;;;;5038996;28;20271;-11
2023/04/09 15:34:17;;;;;;;;;;;17.20;63.70;;;;;;5038735;28;19909;-11
2023/04/09 15:36:44;;;;;;;;;;;17.20;63.80;;;;;;5037569;28;19936;-11
2023/04/09 15:39:10;;;;;;;;;;;17.20;64.00;;;;;;5036613;28;19970;-11
2023/04/09 15:41:35;;;;;;;;;;;17.30;64.20;;;;;;5037808;28;19987;-11
2023/04/09 15:44:01;;;;;;;;;;;17.30;64.40;;;;;;5036859;28;19939;-11
2023/04/09 15:46:26;;;;;;;;;;;17.20;64.70;;;;;;5037664;28;20248;-11
2023/04/09 15:48:57;;;;;;;;;;;17.30;64.90;;;;;;5037254;28;20399;-11
2023/04/09 15:51:23;;;;;;;;;;;17.30;65.00;;;;;;5037877;28;19940;-11
2023/04/09 15:53:48;;;;;;;;;;;17.30;65.00;;;;;;5037333;28;19909;-11
2023/04/09 15:56:14;;;;;;;;;;;17.30;65.10;;;;;;5037116;28;19959;-11
2023/04/09 15:58:48;;;;;;;;;;;17.30;65.20;;;;;;5037623;28;19909;-11